Strona główna
METAR-TAF:

METAR-TAF

Lotnisko :

William H. Morse State Airport

Bennington, Vermont, Stany Zjednoczone

Szerokość geograficzna: 42-53-24N, Długość geograficzna: 073-14-47W, wysokość: 252 m

Aktualna obserwacja pogody

Raport powstał 1 godzina i 5 minut temu, godzina 21:54 UTC
Wiatr 8 kt od zachód w porywach dochodzący do 15 kt
Temperatura -7°C
Wilgotność 45%
Ciśnienie 1033 hPa
Widzialność: 16.1 km
bezchmurnie

METAR: KDDH 192154Z AUTO 28008G15KT 10SM CLR M07/M17 A3049 RMK AO2 SLP341 T10671167

czas: 17:59 (22:59 UTC)


TAF: brakujący

Obserwacja i prognoza pogody dla ponad 4000 lotnisk (raport METAR i TAF).

Dostępne stacje oznaczono żółtymi i czerwonymi punktami na mapie.

Najedź kursorem aby zobaczyć nazwę stacji.

Kliknij aby zobaczyć obserwacje i prognozy pogody.

Aby zmienić mapę: kliknij na zielony przycisk z czarnym krzyżykiem, aby powiększyć; na zielony przycisk z myślnikiem, aby pomniejszyć; na zielone strzałki, aby przejść do map sąsiednich.


METAR-TAF: